sensor_id;sensor_type;location;lat;lon;timestamp;temperature;humidity
790;DHT22;378;48.844;9.156;2024-03-25T00:01:28;5.10;99.90
790;DHT22;378;48.844;9.156;2024-03-25T00:03:54;5.20;99.90
790;DHT22;378;48.844;9.156;2024-03-25T00:06:20;5.20;99.90
790;DHT22;378;48.844;9.156;2024-03-25T00:08:46;5.30;99.90
790;DHT22;378;48.844;9.156;2024-03-25T00:11:12;5.40;99.90
790;DHT22;378;48.844;9.156;2024-03-25T00:13:38;5.30;99.90
790;DHT22;378;48.844;9.156;2024-03-25T00:16:05;5.20;99.90
790;DHT22;378;48.844;9.156;2024-03-25T00:18:32;5.30;99.90
790;DHT22;378;48.844;9.156;2024-03-25T00:20:58;5.30;99.90
790;DHT22;378;48.844;9.156;2024-03-25T00:23:24;5.20;99.90
790;DHT22;378;48.844;9.156;2024-03-25T00:25:50;5.30;99.90
790;DHT22;378;48.844;9.156;2024-03-25T00:28:16;5.30;99.90
790;DHT22;378;48.844;9.156;2024-03-25T00:30:41;5.30;99.90
790;DHT22;378;48.844;9.156;2024-03-25T00:33:10;5.30;99.90
790;DHT22;378;48.844;9.156;2024-03-25T00:35:37;5.30;99.90
790;DHT22;378;48.844;9.156;2024-03-25T00:38:03;5.30;99.90
790;DHT22;378;48.844;9.156;2024-03-25T00:40:30;5.30;99.90
790;DHT22;378;48.844;9.156;2024-03-25T00:42:56;5.20;99.90
790;DHT22;378;48.844;9.156;2024-03-25T00:45:23;5.20;99.90
790;DHT22;378;48.844;9.156;2024-03-25T00:47:51;5.20;99.90
790;DHT22;378;48.844;9.156;2024-03-25T00:50:16;5.30;99.90
790;DHT22;378;48.844;9.156;2024-03-25T00:52:42;5.20;99.90
790;DHT22;378;48.844;9.156;2024-03-25T00:55:08;5.30;99.90
790;DHT22;378;48.844;9.156;2024-03-25T00:57:34;5.20;99.90
790;DHT22;378;48.844;9.156;2024-03-25T01:00:00;5.20;99.90
790;DHT22;378;48.844;9.156;2024-03-25T01:02:26;5.20;99.90
790;DHT22;378;48.844;9.156;2024-03-25T01:04:53;5.20;99.90
790;DHT22;378;48.844;9.156;2024-03-25T01:07:20;5.20;99.90
790;DHT22;378;48.844;9.156;2024-03-25T01:09:46;5.20;99.90
790;DHT22;378;48.844;9.156;2024-03-25T01:12:12;5.20;99.90
790;DHT22;378;48.844;9.156;2024-03-25T01:14:38;5.20;99.90
790;DHT22;378;48.844;9.156;2024-03-25T01:17:04;5.20;99.90
790;DHT22;378;48.844;9.156;2024-03-25T01:19:30;5.20;99.90
790;DHT22;378;48.844;9.156;2024-03-25T01:21:56;5.20;99.90
790;DHT22;378;48.844;9.156;2024-03-25T01:24:22;5.20;99.90
790;DHT22;378;48.844;9.156;2024-03-25T01:26:48;5.30;99.90
790;DHT22;378;48.844;9.156;2024-03-25T01:29:14;5.20;99.90
790;DHT22;378;48.844;9.156;2024-03-25T01:31:40;5.20;99.90
790;DHT22;378;48.844;9.156;2024-03-25T01:34:06;5.20;99.90
790;DHT22;378;48.844;9.156;2024-03-25T01:36:38;5.30;99.90
790;DHT22;378;48.844;9.156;2024-03-25T01:39:05;5.30;99.90
790;DHT22;378;48.844;9.156;2024-03-25T01:41:31;5.30;99.90
790;DHT22;378;48.844;9.156;2024-03-25T01:43:57;5.30;99.90
790;DHT22;378;48.844;9.156;2024-03-25T01:46:25;5.30;99.90
790;DHT22;378;48.844;9.156;2024-03-25T01:48:51;5.30;99.90
790;DHT22;378;48.844;9.156;2024-03-25T01:51:20;5.30;99.90
790;DHT22;378;48.844;9.156;2024-03-25T01:53:48;5.20;99.90
790;DHT22;378;48.844;9.156;2024-03-25T01:56:15;5.20;99.90
790;DHT22;378;48.844;9.156;2024-03-25T01:58:42;5.20;99.90
790;DHT22;378;48.844;9.156;2024-03-25T02:01:09;5.20;99.90
790;DHT22;378;48.844;9.156;2024-03-25T02:03:40;5.20;99.90
790;DHT22;378;48.844;9.156;2024-03-25T02:06:12;5.20;99.90
790;DHT22;378;48.844;9.156;2024-03-25T02:08:41;5.30;99.90
790;DHT22;378;48.844;9.156;2024-03-25T02:11:08;5.30;99.90
790;DHT22;378;48.844;9.156;2024-03-25T02:13:38;5.30;99.90
790;DHT22;378;48.844;9.156;2024-03-25T02:16:05;5.30;99.90
790;DHT22;378;48.844;9.156;2024-03-25T02:18:31;5.30;99.90
790;DHT22;378;48.844;9.156;2024-03-25T02:20:58;5.30;99.90
790;DHT22;378;48.844;9.156;2024-03-25T02:23:24;5.30;99.90
790;DHT22;378;48.844;9.156;2024-03-25T02:25:50;5.30;99.90
790;DHT22;378;48.844;9.156;2024-03-25T02:28:16;5.30;99.90
790;DHT22;378;48.844;9.156;2024-03-25T02:30:42;5.30;99.90
790;DHT22;378;48.844;9.156;2024-03-25T02:33:08;5.30;99.90
790;DHT22;378;48.844;9.156;2024-03-25T02:35:34;5.40;99.90
790;DHT22;378;48.844;9.156;2024-03-25T02:38:01;5.40;99.90
790;DHT22;378;48.844;9.156;2024-03-25T02:40:29;5.40;99.90
790;DHT22;378;48.844;9.156;2024-03-25T02:42:55;5.40;99.90
790;DHT22;378;48.844;9.156;2024-03-25T02:45:21;5.50;99.90
790;DHT22;378;48.844;9.156;2024-03-25T02:47:49;5.40;99.90
790;DHT22;378;48.844;9.156;2024-03-25T02:50:14;5.40;99.90
790;DHT22;378;48.844;9.156;2024-03-25T02:52:40;5.40;99.90
790;DHT22;378;48.844;9.156;2024-03-25T02:55:09;5.50;99.90
790;DHT22;378;48.844;9.156;2024-03-25T02:57:35;5.50;99.90
790;DHT22;378;48.844;9.156;2024-03-25T03:00:01;5.50;99.90
790;DHT22;378;48.844;9.156;2024-03-25T03:02:28;5.50;99.90
790;DHT22;378;48.844;9.156;2024-03-25T03:04:54;5.50;99.90
790;DHT22;378;48.844;9.156;2024-03-25T03:07:20;5.50;99.90
790;DHT22;378;48.844;9.156;2024-03-25T03:09:46;5.50;99.90
790;DHT22;378;48.844;9.156;2024-03-25T03:12:12;5.50;99.90
790;DHT22;378;48.844;9.156;2024-03-25T03:14:38;5.50;99.90
790;DHT22;378;48.844;9.156;2024-03-25T03:17:09;5.50;99.90
790;DHT22;378;48.844;9.156;2024-03-25T03:19:35;5.50;99.90
790;DHT22;378;48.844;9.156;2024-03-25T03:22:02;5.50;99.90
790;DHT22;378;48.844;9.156;2024-03-25T03:24:28;5.50;99.90
790;DHT22;378;48.844;9.156;2024-03-25T03:26:54;5.50;99.90
790;DHT22;378;48.844;9.156;2024-03-25T03:29:20;5.60;99.90
790;DHT22;378;48.844;9.156;2024-03-25T03:31:45;5.60;99.90
790;DHT22;378;48.844;9.156;2024-03-25T03:34:11;5.60;99.90
790;DHT22;378;48.844;9.156;2024-03-25T03:36:37;5.60;99.90
790;DHT22;378;48.844;9.156;2024-03-25T03:39:03;5.70;99.90
790;DHT22;378;48.844;9.156;2024-03-25T03:41:29;5.70;99.90
790;DHT22;378;48.844;9.156;2024-03-25T03:43:55;5.70;99.90
790;DHT22;378;48.844;9.156;2024-03-25T03:46:21;5.80;99.90
790;DHT22;378;48.844;9.156;2024-03-25T03:48:46;5.80;99.90
790;DHT22;378;48.844;9.156;2024-03-25T03:51:12;5.80;99.90
790;DHT22;378;48.844;9.156;2024-03-25T03:53:38;5.80;99.90
790;DHT22;378;48.844;9.156;2024-03-25T03:56:04;5.80;99.90
790;DHT22;378;48.844;9.156;2024-03-25T03:58:34;5.80;99.90
790;DHT22;378;48.844;9.156;2024-03-25T04:01:00;5.80;99.90
790;DHT22;378;48.844;9.156;2024-03-25T04:03:26;5.80;99.90
790;DHT22;378;48.844;9.156;2024-03-25T04:05:52;5.70;99.90
790;DHT22;378;48.844;9.156;2024-03-25T04:08:18;5.70;99.90
790;DHT22;378;48.844;9.156;2024-03-25T04:10:44;5.80;99.90
790;DHT22;378;48.844;9.156;2024-03-25T04:13:11;5.90;99.90
790;DHT22;378;48.844;9.156;2024-03-25T04:15:39;5.80;99.90
790;DHT22;378;48.844;9.156;2024-03-25T04:18:06;5.80;99.90
790;DHT22;378;48.844;9.156;2024-03-25T04:20:39;5.80;99.90
790;DHT22;378;48.844;9.156;2024-03-25T04:23:05;5.70;99.90
790;DHT22;378;48.844;9.156;2024-03-25T04:25:33;5.70;99.90
790;DHT22;378;48.844;9.156;2024-03-25T04:27:59;5.60;99.90
790;DHT22;378;48.844;9.156;2024-03-25T04:30:25;5.60;99.90
790;DHT22;378;48.844;9.156;2024-03-25T04:32:52;5.60;99.90
790;DHT22;378;48.844;9.156;2024-03-25T04:35:17;5.60;99.90
790;DHT22;378;48.844;9.156;2024-03-25T04:37:44;5.60;99.90
790;DHT22;378;48.844;9.156;2024-03-25T04:40:10;5.50;99.90
790;DHT22;378;48.844;9.156;2024-03-25T04:42:40;5.50;99.90
790;DHT22;378;48.844;9.156;2024-03-25T04:45:06;5.50;99.90
790;DHT22;378;48.844;9.156;2024-03-25T04:47:32;5.50;99.90
790;DHT22;378;48.844;9.156;2024-03-25T04:49:59;5.40;99.90
790;DHT22;378;48.844;9.156;2024-03-25T04:52:25;5.50;99.90
790;DHT22;378;48.844;9.156;2024-03-25T04:54:51;5.30;99.90
790;DHT22;378;48.844;9.156;2024-03-25T04:57:17;5.30;99.90
790;DHT22;378;48.844;9.156;2024-03-25T04:59:45;5.40;99.90
790;DHT22;378;48.844;9.156;2024-03-25T05:02:11;5.40;99.90
790;DHT22;378;48.844;9.156;2024-03-25T05:04:37;5.40;99.90
790;DHT22;378;48.844;9.156;2024-03-25T05:07:03;5.30;99.90
790;DHT22;378;48.844;9.156;2024-03-25T05:09:29;5.30;99.90
790;DHT22;378;48.844;9.156;2024-03-25T05:11:54;5.30;99.90
790;DHT22;378;48.844;9.156;2024-03-25T05:14:20;5.30;99.90
790;DHT22;378;48.844;9.156;2024-03-25T05:16:46;5.30;99.90
790;DHT22;378;48.844;9.156;2024-03-25T05:19:12;5.40;99.90
790;DHT22;378;48.844;9.156;2024-03-25T05:21:38;5.30;99.90
790;DHT22;378;48.844;9.156;2024-03-25T05:24:05;5.30;99.90
790;DHT22;378;48.844;9.156;2024-03-25T05:26:31;5.40;99.90
790;DHT22;378;48.844;9.156;2024-03-25T05:28:57;5.30;99.90
790;DHT22;378;48.844;9.156;2024-03-25T05:31:24;5.30;99.90
790;DHT22;378;48.844;9.156;2024-03-25T05:33:51;5.30;99.90
790;DHT22;378;48.844;9.156;2024-03-25T05:36:17;5.20;99.90
790;DHT22;378;48.844;9.156;2024-03-25T05:38:43;5.30;99.90
790;DHT22;378;48.844;9.156;2024-03-25T05:41:10;5.20;99.90
790;DHT22;378;48.844;9.156;2024-03-25T05:43:36;5.20;99.90
790;DHT22;378;48.844;9.156;2024-03-25T05:46:03;5.20;99.90
790;DHT22;378;48.844;9.156;2024-03-25T05:48:29;5.20;99.90
790;DHT22;378;48.844;9.156;2024-03-25T05:51:06;5.20;99.90
790;DHT22;378;48.844;9.156;2024-03-25T05:53:38;5.10;99.90
790;DHT22;378;48.844;9.156;2024-03-25T05:56:07;5.20;99.90
790;DHT22;378;48.844;9.156;2024-03-25T05:58:33;5.10;99.90
790;DHT22;378;48.844;9.156;2024-03-25T06:01:01;5.10;99.90
790;DHT22;378;48.844;9.156;2024-03-25T06:03:30;5.20;99.90
790;DHT22;378;48.844;9.156;2024-03-25T06:05:56;5.20;99.90
790;DHT22;378;48.844;9.156;2024-03-25T06:08:22;5.30;99.90
790;DHT22;378;48.844;9.156;2024-03-25T06:10:51;5.30;99.90
790;DHT22;378;48.844;9.156;2024-03-25T06:13:21;5.20;99.90
790;DHT22;378;48.844;9.156;2024-03-25T06:15:47;5.30;99.90
790;DHT22;378;48.844;9.156;2024-03-25T06:18:13;5.30;99.90
790;DHT22;378;48.844;9.156;2024-03-25T06:20:39;5.30;99.90
790;DHT22;378;48.844;9.156;2024-03-25T06:23:04;5.30;99.90
790;DHT22;378;48.844;9.156;2024-03-25T06:25:31;5.20;99.90
790;DHT22;378;48.844;9.156;2024-03-25T06:27:59;5.30;99.90
790;DHT22;378;48.844;9.156;2024-03-25T06:30:25;5.30;99.90
790;DHT22;378;48.844;9.156;2024-03-25T06:33:09;5.40;99.90
790;DHT22;378;48.844;9.156;2024-03-25T06:35:53;5.40;99.90
790;DHT22;378;48.844;9.156;2024-03-25T06:38:20;5.40;99.90
790;DHT22;378;48.844;9.156;2024-03-25T06:40:46;5.40;99.90
790;DHT22;378;48.844;9.156;2024-03-25T06:43:12;5.40;99.90
790;DHT22;378;48.844;9.156;2024-03-25T06:45:38;5.50;99.90
790;DHT22;378;48.844;9.156;2024-03-25T06:48:04;5.50;99.90
790;DHT22;378;48.844;9.156;2024-03-25T06:50:32;5.70;99.90
790;DHT22;378;48.844;9.156;2024-03-25T06:52:57;5.70;99.90
790;DHT22;378;48.844;9.156;2024-03-25T06:55:23;5.70;99.90
790;DHT22;378;48.844;9.156;2024-03-25T06:57:53;5.80;99.90
790;DHT22;378;48.844;9.156;2024-03-25T07:00:19;5.70;99.90
790;DHT22;378;48.844;9.156;2024-03-25T07:02:48;5.80;99.90
790;DHT22;378;48.844;9.156;2024-03-25T07:05:14;5.80;99.90
790;DHT22;378;48.844;9.156;2024-03-25T07:07:40;5.90;99.90
790;DHT22;378;48.844;9.156;2024-03-25T07:10:06;6.00;99.90
790;DHT22;378;48.844;9.156;2024-03-25T07:12:32;6.00;99.90
790;DHT22;378;48.844;9.156;2024-03-25T07:14:58;6.10;99.90
790;DHT22;378;48.844;9.156;2024-03-25T07:17:23;6.10;99.90
790;DHT22;378;48.844;9.156;2024-03-25T07:19:51;6.20;99.90
790;DHT22;378;48.844;9.156;2024-03-25T07:22:18;6.30;99.90
790;DHT22;378;48.844;9.156;2024-03-25T07:24:43;6.40;99.90
790;DHT22;378;48.844;9.156;2024-03-25T07:27:10;6.30;99.90
790;DHT22;378;48.844;9.156;2024-03-25T07:29:37;6.30;99.90
790;DHT22;378;48.844;9.156;2024-03-25T07:32:03;6.40;99.90
790;DHT22;378;48.844;9.156;2024-03-25T07:34:29;6.40;99.90
790;DHT22;378;48.844;9.156;2024-03-25T07:36:54;6.50;99.90
790;DHT22;378;48.844;9.156;2024-03-25T07:39:20;6.50;99.90
790;DHT22;378;48.844;9.156;2024-03-25T07:41:49;6.50;99.90
790;DHT22;378;48.844;9.156;2024-03-25T07:44:15;6.50;99.90
790;DHT22;378;48.844;9.156;2024-03-25T07:46:41;6.50;99.90
790;DHT22;378;48.844;9.156;2024-03-25T07:49:07;6.50;99.90
790;DHT22;378;48.844;9.156;2024-03-25T07:51:34;6.50;99.90
790;DHT22;378;48.844;9.156;2024-03-25T07:54:01;6.60;99.90
790;DHT22;378;48.844;9.156;2024-03-25T07:56:29;6.60;99.90
790;DHT22;378;48.844;9.156;2024-03-25T07:58:56;6.60;99.90
790;DHT22;378;48.844;9.156;2024-03-25T08:01:21;6.70;99.90
790;DHT22;378;48.844;9.156;2024-03-25T08:03:47;6.70;99.90
790;DHT22;378;48.844;9.156;2024-03-25T08:06:13;6.60;99.90
790;DHT22;378;48.844;9.156;2024-03-25T08:08:39;6.60;99.90
790;DHT22;378;48.844;9.156;2024-03-25T08:11:05;6.60;99.90
790;DHT22;378;48.844;9.156;2024-03-25T08:13:30;6.60;99.90
790;DHT22;378;48.844;9.156;2024-03-25T08:15:56;6.60;99.90
790;DHT22;378;48.844;9.156;2024-03-25T08:18:26;6.80;99.90
790;DHT22;378;48.844;9.156;2024-03-25T08:20:52;6.90;99.90
790;DHT22;378;48.844;9.156;2024-03-25T08:23:18;7.10;99.90
790;DHT22;378;48.844;9.156;2024-03-25T08:25:44;7.30;99.90
790;DHT22;378;48.844;9.156;2024-03-25T08:28:10;7.30;99.90
790;DHT22;378;48.844;9.156;2024-03-25T08:30:36;7.20;99.90
790;DHT22;378;48.844;9.156;2024-03-25T08:33:02;7.30;99.90
790;DHT22;378;48.844;9.156;2024-03-25T08:35:28;7.40;99.90
790;DHT22;378;48.844;9.156;2024-03-25T08:38:18;7.50;99.90
790;DHT22;378;48.844;9.156;2024-03-25T08:40:47;7.60;99.90
790;DHT22;378;48.844;9.156;2024-03-25T08:43:13;7.60;99.90
790;DHT22;378;48.844;9.156;2024-03-25T08:45:39;7.60;99.90
790;DHT22;378;48.844;9.156;2024-03-25T08:48:08;7.60;99.90
790;DHT22;378;48.844;9.156;2024-03-25T08:50:48;7.50;99.90
790;DHT22;378;48.844;9.156;2024-03-25T08:53:23;7.50;99.90
790;DHT22;378;48.844;9.156;2024-03-25T08:55:49;7.50;99.90
790;DHT22;378;48.844;9.156;2024-03-25T08:58:15;7.40;99.90
790;DHT22;378;48.844;9.156;2024-03-25T09:00:42;7.50;99.90
790;DHT22;378;48.844;9.156;2024-03-25T09:03:08;7.50;99.90
790;DHT22;378;48.844;9.156;2024-03-25T09:05:34;7.50;99.90
790;DHT22;378;48.844;9.156;2024-03-25T09:08:00;7.50;99.90
790;DHT22;378;48.844;9.156;2024-03-25T09:10:27;7.60;99.90
790;DHT22;378;48.844;9.156;2024-03-25T09:13:12;7.60;99.90
790;DHT22;378;48.844;9.156;2024-03-25T09:15:38;7.60;99.90
790;DHT22;378;48.844;9.156;2024-03-25T09:18:04;7.70;99.90
790;DHT22;378;48.844;9.156;2024-03-25T09:20:30;7.70;99.90
790;DHT22;378;48.844;9.156;2024-03-25T09:22:56;7.80;99.90
790;DHT22;378;48.844;9.156;2024-03-25T09:25:22;7.90;99.90
790;DHT22;378;48.844;9.156;2024-03-25T09:27:49;8.10;99.90
790;DHT22;378;48.844;9.156;2024-03-25T09:30:16;8.10;99.90
790;DHT22;378;48.844;9.156;2024-03-25T09:32:44;8.20;99.90
790;DHT22;378;48.844;9.156;2024-03-25T09:35:11;8.20;99.90
790;DHT22;378;48.844;9.156;2024-03-25T09:37:37;8.30;99.90
790;DHT22;378;48.844;9.156;2024-03-25T09:40:04;8.20;99.90
790;DHT22;378;48.844;9.156;2024-03-25T09:42:52;8.30;99.90
790;DHT22;378;48.844;9.156;2024-03-25T09:45:24;8.40;99.90
790;DHT22;378;48.844;9.156;2024-03-25T09:47:55;8.40;99.90
790;DHT22;378;48.844;9.156;2024-03-25T09:50:21;8.40;99.90
790;DHT22;378;48.844;9.156;2024-03-25T09:52:50;8.40;99.90
790;DHT22;378;48.844;9.156;2024-03-25T09:55:17;8.50;99.90
790;DHT22;378;48.844;9.156;2024-03-25T09:57:44;8.60;99.90
790;DHT22;378;48.844;9.156;2024-03-25T10:00:11;8.60;99.90
790;DHT22;378;48.844;9.156;2024-03-25T10:02:42;8.60;99.90
790;DHT22;378;48.844;9.156;2024-03-25T10:05:08;8.60;99.90
790;DHT22;378;48.844;9.156;2024-03-25T10:07:35;8.70;99.90
790;DHT22;378;48.844;9.156;2024-03-25T10:10:07;8.90;99.90
790;DHT22;378;48.844;9.156;2024-03-25T10:12:35;8.90;99.90
790;DHT22;378;48.844;9.156;2024-03-25T10:15:01;8.70;99.90
790;DHT22;378;48.844;9.156;2024-03-25T10:17:27;8.70;99.90
790;DHT22;378;48.844;9.156;2024-03-25T10:19:56;8.70;99.90
790;DHT22;378;48.844;9.156;2024-03-25T10:22:23;8.80;99.90
790;DHT22;378;48.844;9.156;2024-03-25T10:24:49;8.80;99.90
790;DHT22;378;48.844;9.156;2024-03-25T10:27:23;8.80;99.90
790;DHT22;378;48.844;9.156;2024-03-25T10:29:54;8.80;99.90
790;DHT22;378;48.844;9.156;2024-03-25T10:32:23;8.80;99.90
790;DHT22;378;48.844;9.156;2024-03-25T10:34:58;8.80;99.90
790;DHT22;378;48.844;9.156;2024-03-25T10:37:24;8.90;99.90
790;DHT22;378;48.844;9.156;2024-03-25T10:39:54;8.90;99.90
790;DHT22;378;48.844;9.156;2024-03-25T10:42:27;9.00;99.90
790;DHT22;378;48.844;9.156;2024-03-25T10:44:52;9.20;99.90
790;DHT22;378;48.844;9.156;2024-03-25T10:47:24;9.40;99.90
790;DHT22;378;48.844;9.156;2024-03-25T10:49:57;9.40;99.90
790;DHT22;378;48.844;9.156;2024-03-25T10:52:26;9.40;99.90
790;DHT22;378;48.844;9.156;2024-03-25T10:54:54;9.30;99.90
790;DHT22;378;48.844;9.156;2024-03-25T10:57:20;9.30;99.90
790;DHT22;378;48.844;9.156;2024-03-25T10:59:47;9.30;99.90
790;DHT22;378;48.844;9.156;2024-03-25T11:02:14;9.20;99.90
790;DHT22;378;48.844;9.156;2024-03-25T11:04:43;9.20;99.90
790;DHT22;378;48.844;9.156;2024-03-25T11:07:12;9.30;99.90
790;DHT22;378;48.844;9.156;2024-03-25T11:09:38;9.40;99.90
790;DHT22;378;48.844;9.156;2024-03-25T11:12:05;9.50;99.90
790;DHT22;378;48.844;9.156;2024-03-25T11:14:31;9.40;99.90
790;DHT22;378;48.844;9.156;2024-03-25T11:17:01;9.40;99.90
790;DHT22;378;48.844;9.156;2024-03-25T11:19:29;9.50;99.90
790;DHT22;378;48.844;9.156;2024-03-25T11:22:09;9.50;99.90
790;DHT22;378;48.844;9.156;2024-03-25T11:24:36;9.70;99.90
790;DHT22;378;48.844;9.156;2024-03-25T11:27:06;9.80;99.90
790;DHT22;378;48.844;9.156;2024-03-25T11:29:33;9.80;99.90
790;DHT22;378;48.844;9.156;2024-03-25T11:32:03;9.80;99.90
790;DHT22;378;48.844;9.156;2024-03-25T11:34:29;9.90;99.90
790;DHT22;378;48.844;9.156;2024-03-25T11:36:56;9.80;99.90
790;DHT22;378;48.844;9.156;2024-03-25T11:39:24;9.90;99.90
790;DHT22;378;48.844;9.156;2024-03-25T11:41:52;9.90;99.90
790;DHT22;378;48.844;9.156;2024-03-25T11:44:19;9.90;99.90
790;DHT22;378;48.844;9.156;2024-03-25T11:46:45;9.90;99.90
790;DHT22;378;48.844;9.156;2024-03-25T11:49:17;9.90;99.90
790;DHT22;378;48.844;9.156;2024-03-25T11:51:44;10.00;99.90
790;DHT22;378;48.844;9.156;2024-03-25T11:54:12;10.10;99.90
790;DHT22;378;48.844;9.156;2024-03-25T11:56:40;10.20;99.90
790;DHT22;378;48.844;9.156;2024-03-25T11:59:06;10.20;99.90
790;DHT22;378;48.844;9.156;2024-03-25T12:01:33;10.20;99.90
790;DHT22;378;48.844;9.156;2024-03-25T12:04:16;10.20;99.90
790;DHT22;378;48.844;9.156;2024-03-25T12:06:42;10.30;99.90
790;DHT22;378;48.844;9.156;2024-03-25T12:09:08;10.40;99.90
790;DHT22;378;48.844;9.156;2024-03-25T12:11:53;10.40;99.90
790;DHT22;378;48.844;9.156;2024-03-25T12:14:21;10.50;99.90
790;DHT22;378;48.844;9.156;2024-03-25T12:16:48;10.50;99.90
790;DHT22;378;48.844;9.156;2024-03-25T12:19:15;10.60;99.90
790;DHT22;378;48.844;9.156;2024-03-25T12:21:41;10.80;99.90
790;DHT22;378;48.844;9.156;2024-03-25T12:24:07;10.80;99.90
790;DHT22;378;48.844;9.156;2024-03-25T12:26:34;10.70;99.90
790;DHT22;378;48.844;9.156;2024-03-25T12:29:01;10.70;99.90
790;DHT22;378;48.844;9.156;2024-03-25T12:31:29;10.70;99.90
790;DHT22;378;48.844;9.156;2024-03-25T12:33:55;10.70;99.90
790;DHT22;378;48.844;9.156;2024-03-25T12:36:21;10.70;99.90
790;DHT22;378;48.844;9.156;2024-03-25T12:38:54;10.60;99.90
790;DHT22;378;48.844;9.156;2024-03-25T12:41:22;10.70;99.90
790;DHT22;378;48.844;9.156;2024-03-25T12:43:50;10.70;99.90
790;DHT22;378;48.844;9.156;2024-03-25T12:46:16;10.70;99.90
790;DHT22;378;48.844;9.156;2024-03-25T12:48:42;10.80;99.90
790;DHT22;378;48.844;9.156;2024-03-25T12:51:13;10.80;99.90
790;DHT22;378;48.844;9.156;2024-03-25T12:53:39;10.90;99.90
790;DHT22;378;48.844;9.156;2024-03-25T12:56:06;10.90;99.90
790;DHT22;378;48.844;9.156;2024-03-25T12:58:32;11.00;99.90
790;DHT22;378;48.844;9.156;2024-03-25T13:00:58;11.00;99.90
790;DHT22;378;48.844;9.156;2024-03-25T13:03:24;11.20;99.90
790;DHT22;378;48.844;9.156;2024-03-25T13:05:50;11.30;99.90
790;DHT22;378;48.844;9.156;2024-03-25T13:08:16;11.30;99.90
790;DHT22;378;48.844;9.156;2024-03-25T13:10:43;11.30;99.90
790;DHT22;378;48.844;9.156;2024-03-25T13:13:09;11.30;99.90
790;DHT22;378;48.844;9.156;2024-03-25T13:15:35;11.30;99.90
790;DHT22;378;48.844;9.156;2024-03-25T13:18:01;11.40;99.90
790;DHT22;378;48.844;9.156;2024-03-25T13:20:27;11.40;99.90
790;DHT22;378;48.844;9.156;2024-03-25T13:22:53;11.50;99.90
790;DHT22;378;48.844;9.156;2024-03-25T13:25:22;11.40;99.90
790;DHT22;378;48.844;9.156;2024-03-25T13:27:48;11.40;99.90
790;DHT22;378;48.844;9.156;2024-03-25T13:30:14;11.40;99.90
790;DHT22;378;48.844;9.156;2024-03-25T13:32:40;11.40;99.90
790;DHT22;378;48.844;9.156;2024-03-25T13:35:06;11.40;99.90
790;DHT22;378;48.844;9.156;2024-03-25T13:37:32;11.50;99.90
790;DHT22;378;48.844;9.156;2024-03-25T13:39:58;11.60;99.90
790;DHT22;378;48.844;9.156;2024-03-25T13:42:24;11.70;99.90
790;DHT22;378;48.844;9.156;2024-03-25T13:44:49;11.80;99.90
790;DHT22;378;48.844;9.156;2024-03-25T13:47:15;11.80;99.90
790;DHT22;378;48.844;9.156;2024-03-25T13:49:41;11.90;99.90
790;DHT22;378;48.844;9.156;2024-03-25T13:52:07;12.10;99.90
790;DHT22;378;48.844;9.156;2024-03-25T13:54:33;12.10;99.90
790;DHT22;378;48.844;9.156;2024-03-25T13:56:59;12.10;99.90
790;DHT22;378;48.844;9.156;2024-03-25T13:59:25;12.10;99.90
790;DHT22;378;48.844;9.156;2024-03-25T14:01:51;12.00;99.90
790;DHT22;378;48.844;9.156;2024-03-25T14:04:19;12.00;99.90
790;DHT22;378;48.844;9.156;2024-03-25T14:06:45;12.00;99.90
790;DHT22;378;48.844;9.156;2024-03-25T14:09:24;12.10;99.90
790;DHT22;378;48.844;9.156;2024-03-25T14:11:51;12.10;99.90
790;DHT22;378;48.844;9.156;2024-03-25T14:14:16;12.10;99.90
790;DHT22;378;48.844;9.156;2024-03-25T14:16:42;12.20;99.90
790;DHT22;378;48.844;9.156;2024-03-25T14:19:08;12.20;99.90
790;DHT22;378;48.844;9.156;2024-03-25T14:21:34;12.30;99.90
790;DHT22;378;48.844;9.156;2024-03-25T14:24:00;12.50;99.90
790;DHT22;378;48.844;9.156;2024-03-25T14:26:26;12.50;99.90
790;DHT22;378;48.844;9.156;2024-03-25T14:28:51;12.50;99.90
790;DHT22;378;48.844;9.156;2024-03-25T14:31:17;12.50;99.90
790;DHT22;378;48.844;9.156;2024-03-25T14:33:43;12.40;99.90
790;DHT22;378;48.844;9.156;2024-03-25T14:36:09;12.60;99.90
790;DHT22;378;48.844;9.156;2024-03-25T14:38:35;12.60;99.90
790;DHT22;378;48.844;9.156;2024-03-25T14:41:00;12.60;99.90
790;DHT22;378;48.844;9.156;2024-03-25T14:43:26;12.70;99.90
790;DHT22;378;48.844;9.156;2024-03-25T14:45:53;12.80;99.90
790;DHT22;378;48.844;9.156;2024-03-25T14:48:18;12.90;99.90
790;DHT22;378;48.844;9.156;2024-03-25T14:50:44;12.90;99.90
790;DHT22;378;48.844;9.156;2024-03-25T14:53:10;12.90;99.90
790;DHT22;378;48.844;9.156;2024-03-25T14:55:36;13.00;99.90
790;DHT22;378;48.844;9.156;2024-03-25T14:58:02;13.10;99.90
790;DHT22;378;48.844;9.156;2024-03-25T15:00:28;13.10;99.90
790;DHT22;378;48.844;9.156;2024-03-25T15:02:54;13.20;99.90
790;DHT22;378;48.844;9.156;2024-03-25T15:05:20;13.20;99.90
790;DHT22;378;48.844;9.156;2024-03-25T15:07:46;13.20;99.90
790;DHT22;378;48.844;9.156;2024-03-25T15:10:12;13.20;99.90
790;DHT22;378;48.844;9.156;2024-03-25T15:12:38;13.10;99.90
790;DHT22;378;48.844;9.156;2024-03-25T15:15:07;13.10;99.90
790;DHT22;378;48.844;9.156;2024-03-25T15:17:35;13.10;99.90
790;DHT22;378;48.844;9.156;2024-03-25T15:20:03;13.10;99.90
790;DHT22;378;48.844;9.156;2024-03-25T15:22:29;13.00;99.90
790;DHT22;378;48.844;9.156;2024-03-25T15:24:55;12.90;99.90
790;DHT22;378;48.844;9.156;2024-03-25T15:27:21;12.80;99.90
790;DHT22;378;48.844;9.156;2024-03-25T15:29:47;12.80;99.90
790;DHT22;378;48.844;9.156;2024-03-25T15:32:13;12.70;99.90
790;DHT22;378;48.844;9.156;2024-03-25T15:34:39;12.60;99.90
790;DHT22;378;48.844;9.156;2024-03-25T15:37:05;12.60;99.90
790;DHT22;378;48.844;9.156;2024-03-25T15:39:31;12.50;99.90
790;DHT22;378;48.844;9.156;2024-03-25T15:41:57;12.30;99.90
790;DHT22;378;48.844;9.156;2024-03-25T15:44:23;12.20;99.90
790;DHT22;378;48.844;9.156;2024-03-25T15:46:48;12.10;99.90
790;DHT22;378;48.844;9.156;2024-03-25T15:49:14;12.00;99.90
790;DHT22;378;48.844;9.156;2024-03-25T15:51:40;11.90;99.90
790;DHT22;378;48.844;9.156;2024-03-25T15:54:06;11.80;99.90
790;DHT22;378;48.844;9.156;2024-03-25T15:56:32;11.70;99.90
790;DHT22;378;48.844;9.156;2024-03-25T15:58:58;11.70;99.90
790;DHT22;378;48.844;9.156;2024-03-25T16:01:24;11.70;99.90
790;DHT22;378;48.844;9.156;2024-03-25T16:03:49;11.60;99.90
790;DHT22;378;48.844;9.156;2024-03-25T16:06:15;11.50;99.90
790;DHT22;378;48.844;9.156;2024-03-25T16:08:41;11.50;99.90
790;DHT22;378;48.844;9.156;2024-03-25T16:11:14;11.50;99.90
790;DHT22;378;48.844;9.156;2024-03-25T16:13:40;11.50;99.90
790;DHT22;378;48.844;9.156;2024-03-25T16:16:06;11.50;99.90
790;DHT22;378;48.844;9.156;2024-03-25T16:18:32;11.50;99.90
790;DHT22;378;48.844;9.156;2024-03-25T16:20:58;11.50;99.90
790;DHT22;378;48.844;9.156;2024-03-25T16:23:25;11.40;99.90
790;DHT22;378;48.844;9.156;2024-03-25T16:25:51;11.30;99.90
790;DHT22;378;48.844;9.156;2024-03-25T16:28:17;11.40;99.90
790;DHT22;378;48.844;9.156;2024-03-25T16:30:44;11.40;99.90
790;DHT22;378;48.844;9.156;2024-03-25T16:33:10;11.40;99.90
790;DHT22;378;48.844;9.156;2024-03-25T16:35:35;11.30;99.90
790;DHT22;378;48.844;9.156;2024-03-25T16:38:01;11.30;99.90
790;DHT22;378;48.844;9.156;2024-03-25T16:40:27;11.30;99.90
790;DHT22;378;48.844;9.156;2024-03-25T16:42:53;11.30;99.90
790;DHT22;378;48.844;9.156;2024-03-25T16:45:19;11.30;99.90